Time;durP1;ratioP1;P1;durP2;ratioP2;P2;SDS_P1;SDS_P2;PMS_P1;PMS_P2;Temp;Humidity;BMP_temperature;BMP_pressure;BME280_temperature;BME280_humidity;BME280_pressure;Samples;Min_cycle;Max_cycle;Signal;HPM_P1;HPM_P2
2021/12/24 00:02:09;;;;;;;18.67;11.57;;;4.60;99.90;;;;;;5099939;28;20217;-70
2021/12/24 00:04:37;;;;;;;16.73;10.98;;;4.60;99.90;;;;;;5099599;28;20230;-72
2021/12/24 00:07:06;;;;;;;16.15;10.13;;;4.60;99.90;;;;;;5100105;28;20217;-72
2021/12/24 00:09:35;;;;;;;18.58;11.82;;;4.60;99.90;;;;;;5096229;28;20654;-71
2021/12/24 00:12:11;;;;;;;18.45;11.63;;;4.70;99.90;;;;;;5099603;28;20211;-71
2021/12/24 00:14:45;;;;;;;16.45;11.60;;;4.70;99.90;;;;;;5099094;28;20191;-71
2021/12/24 00:17:15;;;;;;;17.25;10.95;;;4.70;99.90;;;;;;5099255;28;20210;-72
2021/12/24 00:20:03;;;;;;;19.13;10.20;;;4.70;99.90;;;;;;5099362;28;20333;-71
2021/12/24 00:36:12;;;;;;;17.05;10.23;;;4.90;99.90;;;;;;5098829;27;20229;-71
2021/12/24 00:38:40;;;;;;;16.00;9.95;;;4.90;99.90;;;;;;5099560;28;20678;-70
2021/12/24 00:41:08;;;;;;;11.85;9.43;;;4.90;99.90;;;;;;5098881;28;20213;-70
2021/12/24 00:43:36;;;;;;;14.10;9.52;;;5.00;99.90;;;;;;5096978;28;20702;-71
2021/12/24 00:46:05;;;;;;;14.13;9.57;;;5.00;99.90;;;;;;5098366;27;20737;-71
2021/12/24 00:48:33;;;;;;;13.90;9.35;;;5.00;99.90;;;;;;5098212;28;20362;-70
2021/12/24 00:51:19;;;;;;;13.48;8.98;;;5.10;99.90;;;;;;5097473;28;20207;-70
2021/12/24 00:56:33;;;;;;;14.50;9.20;;;5.10;99.90;;;;;;5098012;28;20224;-71
2021/12/24 00:59:01;;;;;;;10.90;8.38;;;5.20;99.90;;;;;;5079686;28;20797;-70
2021/12/24 01:01:30;;;;;;;13.90;10.18;;;5.20;99.90;;;;;;5098497;28;20473;-70
2021/12/24 01:04:02;;;;;;;12.98;9.10;;;5.30;99.90;;;;;;5098917;28;20518;-70
2021/12/24 01:06:29;;;;;;;14.02;9.20;;;5.20;99.90;;;;;;5099463;28;20358;-71
2021/12/24 01:08:57;;;;;;;15.50;8.85;;;5.30;99.90;;;;;;5096638;28;20226;-69
2021/12/24 01:11:27;;;;;;;10.57;8.15;;;5.30;99.90;;;;;;5098862;28;20272;-71
2021/12/24 01:13:55;;;;;;;13.30;8.55;;;5.30;99.90;;;;;;5101550;28;20210;-63
2021/12/24 01:16:29;;;;;;;16.17;8.60;;;5.40;99.90;;;;;;5102318;28;20234;-71
2021/12/24 01:19:03;;;;;;;12.35;8.50;;;5.40;99.90;;;;;;5097861;28;20743;-73
2021/12/24 01:24:32;;;;;;;12.25;9.50;;;5.50;99.90;;;;;;5138738;27;21202;-71
2021/12/24 01:27:10;;;;;;;13.45;8.95;;;5.40;99.90;;;;;;5117652;28;20729;-70
2021/12/24 01:29:50;;;;;;;11.70;8.43;;;5.40;99.90;;;;;;5118002;28;20213;-69
2021/12/24 01:38:09;;;;;;;11.32;8.50;;;5.50;99.90;;;;;;5117630;28;20209;-69
2021/12/24 01:40:52;;;;;;;14.65;8.68;;;5.60;99.90;;;;;;5117452;28;20206;-68
2021/12/24 01:43:19;;;;;;;12.68;9.25;;;5.60;99.90;;;;;;5116900;28;20232;-68
2021/12/24 01:45:49;;;;;;;12.05;7.95;;;5.60;99.90;;;;;;5116445;28;20223;-68
2021/12/24 01:48:17;;;;;;;14.10;10.63;;;5.60;99.90;;;;;;5116479;28;20203;-68
2021/12/24 01:50:48;;;;;;;15.35;8.52;;;5.60;99.90;;;;;;5115970;28;20195;-68
2021/12/24 01:53:18;;;;;;;15.63;9.93;;;5.60;99.90;;;;;;5116274;28;20184;-67
2021/12/24 01:55:50;;;;;;;12.52;8.65;;;5.60;99.90;;;;;;5116124;28;20375;-68
2021/12/24 01:58:19;;;;;;;9.82;8.10;;;5.70;99.90;;;;;;5116282;28;20211;-68
2021/12/24 02:00:49;;;;;;;11.75;9.07;;;5.70;99.90;;;;;;5116119;28;20565;-68
2021/12/24 02:03:18;;;;;;;13.52;9.80;;;5.70;99.90;;;;;;5115986;28;20215;-68
2021/12/24 02:05:46;;;;;;;13.35;9.02;;;5.70;99.90;;;;;;5115996;28;20584;-69
2021/12/24 02:08:15;;;;;;;12.43;8.70;;;5.70;99.90;;;;;;5115480;28;20421;-68
2021/12/24 02:10:44;;;;;;;10.98;9.05;;;5.70;99.90;;;;;;5115444;28;20199;-68
2021/12/24 02:13:14;;;;;;;10.57;8.82;;;5.70;99.90;;;;;;5115629;28;20649;-68
2021/12/24 02:16:07;;;;;;;13.02;10.07;;;5.70;99.90;;;;;;5115777;28;20866;-69
2021/12/24 02:28:14;;;;;;;10.95;8.48;;;5.70;99.90;;;;;;5116509;28;20203;-68
2021/12/24 02:30:05;;;;;;;11.18;8.68;;;5.80;99.90;;;;;;5114761;28;20225;-66
2021/12/24 02:32:34;;;;;;;9.95;8.27;;;5.80;99.90;;;;;;5115260;28;20199;-68
2021/12/24 02:35:02;;;;;;;10.98;8.05;;;5.80;99.90;;;;;;5105530;28;20216;-68
2021/12/24 02:37:31;;;;;;;12.63;9.27;;;5.80;99.90;;;;;;5101542;28;20199;-68
2021/12/24 02:39:59;;;;;;;11.75;8.85;;;5.90;99.90;;;;;;5101523;28;20222;-68
2021/12/24 02:42:27;;;;;;;10.43;8.48;;;5.90;99.90;;;;;;5101026;28;20204;-68
2021/12/24 02:44:54;;;;;;;9.75;8.45;;;5.90;99.90;;;;;;5100485;28;20626;-68
2021/12/24 02:47:41;;;;;;;11.48;8.23;;;5.90;99.90;;;;;;5100673;28;20282;-68
2021/12/24 02:55:42;;;;;;;12.75;8.75;;;5.80;99.90;;;;;;5104539;28;20226;-69
2021/12/24 02:58:10;;;;;;;10.65;9.10;;;5.80;99.90;;;;;;5107016;28;20200;-68
2021/12/24 03:00:38;;;;;;;9.80;8.80;;;5.90;99.90;;;;;;5105081;28;20199;-69
2021/12/24 03:03:06;;;;;;;12.27;8.07;;;5.90;99.90;;;;;;5101332;28;20283;-69
2021/12/24 03:05:34;;;;;;;8.75;7.85;;;6.00;99.90;;;;;;5100650;28;20375;-68
2021/12/24 03:08:04;;;;;;;13.10;8.15;;;6.00;99.90;;;;;;5100553;28;20428;-68
2021/12/24 03:10:32;;;;;;;9.60;7.65;;;6.00;99.90;;;;;;5100661;28;20203;-68
2021/12/24 03:12:59;;;;;;;9.00;7.20;;;6.00;99.90;;;;;;5100304;28;20207;-69
2021/12/24 03:15:27;;;;;;;9.00;7.85;;;6.00;99.90;;;;;;5101124;28;20243;-69
2021/12/24 03:17:58;;;;;;;11.23;7.88;;;6.00;99.90;;;;;;5100364;28;20204;-69
2021/12/24 03:20:32;;;;;;;12.43;7.97;;;6.00;99.90;;;;;;5100252;28;20192;-67
2021/12/24 03:23:09;;;;;;;9.15;7.25;;;6.00;99.90;;;;;;5099516;28;20449;-68
2021/12/24 03:25:38;;;;;;;11.73;8.00;;;6.00;99.90;;;;;;5100539;28;20634;-69
2021/12/24 03:28:06;;;;;;;9.45;8.07;;;6.00;99.90;;;;;;5099997;28;20203;-68
2021/12/24 03:30:34;;;;;;;11.60;7.70;;;6.00;99.90;;;;;;5099898;28;20297;-68
2021/12/24 03:33:02;;;;;;;13.20;8.43;;;6.00;99.90;;;;;;5099560;28;20204;-70
2021/12/24 03:35:30;;;;;;;9.18;8.00;;;6.00;99.90;;;;;;5099908;28;20563;-69
2021/12/24 03:37:58;;;;;;;9.88;7.43;;;6.00;99.90;;;;;;5099916;28;20204;-68
2021/12/24 03:40:26;;;;;;;17.98;8.18;;;6.10;99.90;;;;;;5100149;28;20204;-70
2021/12/24 03:42:56;;;;;;;10.55;7.95;;;6.10;99.90;;;;;;5099778;28;20776;-68
2021/12/24 03:45:28;;;;;;;10.05;6.75;;;6.20;99.90;;;;;;5099005;28;20729;-70
2021/12/24 03:48:00;;;;;;;9.20;6.90;;;6.20;99.90;;;;;;5099775;28;20204;-68
2021/12/24 03:50:43;;;;;;;10.27;7.70;;;6.20;99.90;;;;;;5101045;28;20206;-68
2021/12/24 03:55:52;;;;;;;9.23;7.20;;;6.20;99.90;;;;;;5099031;28;20323;-69
2021/12/24 03:58:22;;;;;;;9.10;7.03;;;6.30;99.90;;;;;;5099680;28;20208;-70
2021/12/24 04:00:49;;;;;;;9.30;7.93;;;6.20;99.90;;;;;;5099756;28;20801;-66
2021/12/24 04:03:17;;;;;;;11.85;8.52;;;6.20;99.90;;;;;;5099693;28;20448;-69
2021/12/24 04:05:47;;;;;;;13.52;9.07;;;6.20;99.90;;;;;;5099977;28;20227;-70
2021/12/24 04:08:15;;;;;;;10.65;7.78;;;6.20;99.90;;;;;;5105384;28;20210;-70
2021/12/24 04:10:43;;;;;;;14.25;9.18;;;6.20;99.90;;;;;;5101461;28;20208;-70
2021/12/24 04:13:13;;;;;;;14.25;9.40;;;6.20;99.90;;;;;;5100822;28;20231;-69
2021/12/24 04:15:43;;;;;;;12.27;8.25;;;6.20;99.90;;;;;;5101789;28;20219;-70
2021/12/24 04:18:16;;;;;;;20.85;9.55;;;6.30;99.90;;;;;;5101724;28;20199;-69
2021/12/24 04:26:17;;;;;;;12.07;8.35;;;6.20;99.90;;;;;;5099831;28;20231;-68
2021/12/24 04:28:45;;;;;;;13.27;9.95;;;6.20;99.90;;;;;;5100056;28;20204;-68
2021/12/24 04:31:15;;;;;;;14.63;9.95;;;6.20;99.90;;;;;;5099704;28;20340;-70
2021/12/24 04:33:47;;;;;;;16.80;9.73;;;6.20;99.90;;;;;;5099437;28;20287;-69
2021/12/24 04:36:36;;;;;;;14.73;9.50;;;6.20;99.90;;;;;;5099419;28;20220;-70
2021/12/24 04:39:34;;;;;;;15.15;9.70;;;6.20;99.90;;;;;;5099323;28;20241;-69
2021/12/24 05:01:12;;;;;;;14.63;8.95;;;6.10;99.90;;;;;;5098606;28;20566;-69
2021/12/24 05:02:01;;;;;;;15.50;9.55;;;6.10;99.90;;;;;;5098507;28;20199;-67
2021/12/24 05:04:33;;;;;;;14.88;9.70;;;6.10;99.90;;;;;;5098156;28;20752;-68
2021/12/24 05:07:09;;;;;;;18.42;10.45;;;6.10;99.90;;;;;;5099860;28;20208;-68
2021/12/24 05:09:40;;;;;;;17.25;10.70;;;6.10;99.90;;;;;;5098333;28;20204;-68
2021/12/24 05:12:09;;;;;;;14.00;10.32;;;6.00;99.90;;;;;;5098604;28;20712;-68
2021/12/24 05:14:37;;;;;;;18.65;9.82;;;6.00;99.90;;;;;;5098251;28;20199;-68
2021/12/24 05:17:21;;;;;;;18.17;11.35;;;6.00;99.90;;;;;;5098252;28;20662;-69
2021/12/24 05:22:36;;;;;;;15.63;10.50;;;6.00;99.90;;;;;;5098254;28;20218;-69
2021/12/24 05:25:04;;;;;;;18.42;10.82;;;5.90;99.90;;;;;;5097745;28;20227;-69
2021/12/24 05:27:33;;;;;;;16.98;10.02;;;6.00;99.90;;;;;;5097924;28;20226;-69
2021/12/24 05:30:00;;;;;;;20.45;11.90;;;5.90;99.90;;;;;;5098234;28;20203;-69
2021/12/24 05:32:28;;;;;;;17.98;11.55;;;5.80;99.90;;;;;;5098029;28;20213;-69
2021/12/24 05:34:57;;;;;;;16.30;11.07;;;5.80;99.90;;;;;;5100960;28;20219;-69
2021/12/24 05:37:25;;;;;;;18.50;11.68;;;5.80;99.90;;;;;;5101200;28;20203;-70
2021/12/24 05:39:53;;;;;;;14.32;10.32;;;5.80;99.90;;;;;;5098193;28;20578;-70
2021/12/24 05:42:22;;;;;;;19.30;10.52;;;5.80;99.90;;;;;;5098351;28;20633;-68
2021/12/24 05:44:50;;;;;;;17.80;10.60;;;5.70;99.90;;;;;;5097726;28;20234;-68
2021/12/24 05:47:18;;;;;;;13.30;10.25;;;5.60;99.90;;;;;;5097939;28;20708;-68
2021/12/24 05:49:46;;;;;;;15.15;9.30;;;5.60;99.90;;;;;;5098395;28;20203;-67
2021/12/24 05:52:15;;;;;;;14.05;8.90;;;5.60;99.90;;;;;;5098162;28;20223;-68
2021/12/24 05:54:43;;;;;;;12.82;8.52;;;5.60;99.90;;;;;;5098393;28;20666;-66
2021/12/24 05:57:11;;;;;;;13.18;8.55;;;5.50;99.90;;;;;;5098153;28;20204;-66
2021/12/24 05:59:39;;;;;;;15.02;9.05;;;5.50;99.90;;;;;;5098122;28;20206;-66
2021/12/24 06:02:06;;;;;;;9.95;6.65;;;5.50;99.90;;;;;;5097563;28;20210;-67
2021/12/24 06:04:34;;;;;;;8.85;6.20;;;5.40;99.90;;;;;;5097529;28;20635;-67
2021/12/24 06:07:02;;;;;;;10.13;6.90;;;5.30;99.90;;;;;;5098003;28;20204;-68
2021/12/24 06:09:31;;;;;;;7.13;5.72;;;5.20;99.90;;;;;;5099032;28;20200;-68
2021/12/24 06:11:59;;;;;;;5.80;4.30;;;5.20;99.90;;;;;;5101881;28;20200;-66
2021/12/24 06:14:27;;;;;;;4.93;4.45;;;5.10;99.90;;;;;;5100815;28;20211;-67
2021/12/24 06:17:01;;;;;;;5.93;4.75;;;5.00;99.90;;;;;;5101541;28;20229;-67
2021/12/24 06:19:34;;;;;;;6.40;4.63;;;4.90;99.90;;;;;;5101253;28;20249;-66
2021/12/24 06:22:01;;;;;;;6.53;4.35;;;4.80;99.90;;;;;;5100706;28;20212;-67
2021/12/24 06:24:31;;;;;;;7.28;4.55;;;4.80;99.90;;;;;;5101187;28;20221;-67
2021/12/24 06:26:59;;;;;;;5.25;4.75;;;4.80;99.90;;;;;;5100897;28;20313;-69
2021/12/24 06:29:26;;;;;;;7.00;3.72;;;4.70;99.90;;;;;;5101147;28;20196;-64
2021/12/24 06:31:54;;;;;;;3.40;3.10;;;4.60;99.90;;;;;;5101143;28;20203;-64
2021/12/24 06:34:22;;;;;;;4.68;4.20;;;4.60;99.90;;;;;;5100809;28;20414;-64
2021/12/24 06:36:51;;;;;;;3.92;3.63;;;4.50;99.90;;;;;;5101400;28;20307;-63
2021/12/24 06:39:19;;;;;;;6.22;4.55;;;4.40;99.90;;;;;;5100945;28;20654;-64
2021/12/24 06:41:48;;;;;;;5.43;3.80;;;4.30;99.90;;;;;;5101228;28;20678;-64
2021/12/24 06:44:16;;;;;;;12.90;5.05;;;4.30;99.90;;;;;;5100812;28;20204;-64
2021/12/24 06:46:44;;;;;;;4.00;3.70;;;4.10;99.90;;;;;;5100903;28;20228;-62
2021/12/24 06:49:13;;;;;;;4.10;3.67;;;4.00;99.90;;;;;;5101425;28;20413;-64
2021/12/24 06:51:41;;;;;;;7.47;4.60;;;4.00;99.90;;;;;;5096170;28;20789;-65
2021/12/24 06:54:10;;;;;;;12.32;4.30;;;3.90;99.90;;;;;;5106672;28;20810;-64
2021/12/24 06:56:43;;;;;;;6.65;4.05;;;3.90;99.90;;;;;;5102196;28;20391;-64
2021/12/24 06:59:12;;;;;;;4.70;4.20;;;3.90;99.90;;;;;;5101579;28;20195;-64
2021/12/24 07:01:40;;;;;;;8.15;5.18;;;3.80;99.90;;;;;;5102161;28;20206;-64
2021/12/24 07:04:08;;;;;;;6.50;4.57;;;3.70;99.90;;;;;;5101807;28;20199;-64
2021/12/24 07:06:37;;;;;;;7.88;4.88;;;3.60;99.90;;;;;;5101968;28;20219;-64
2021/12/24 07:09:05;;;;;;;7.32;5.00;;;3.50;99.90;;;;;;5101831;28;20192;-62
2021/12/24 07:11:33;;;;;;;8.10;4.97;;;3.40;99.90;;;;;;5101501;28;20204;-64
2021/12/24 07:14:01;;;;;;;5.68;3.95;;;3.40;99.90;;;;;;5101597;28;20241;-65
2021/12/24 07:16:30;;;;;;;7.65;4.88;;;3.40;99.90;;;;;;5101893;28;20219;-64
2021/12/24 07:18:57;;;;;;;6.60;5.45;;;3.30;99.90;;;;;;5104231;28;20202;-64
2021/12/24 07:21:25;;;;;;;7.78;5.07;;;3.40;99.90;;;;;;5103102;28;20365;-63
2021/12/24 07:23:53;;;;;;;6.97;5.20;;;3.50;99.90;;;;;;5100993;28;20560;-64
2021/12/24 07:26:21;;;;;;;9.10;5.68;;;3.50;99.90;;;;;;5080647;28;20324;-63
2021/12/24 07:28:48;;;;;;;6.90;5.43;;;3.50;99.90;;;;;;5081763;28;20559;-63
2021/12/24 07:31:16;;;;;;;10.20;6.32;;;3.50;99.90;;;;;;5085689;28;20202;-63
2021/12/24 07:33:46;;;;;;;10.80;5.78;;;3.50;99.90;;;;;;5085488;28;20234;-63
2021/12/24 07:36:14;;;;;;;7.28;5.40;;;3.50;99.90;;;;;;5084104;28;20233;-63
2021/12/24 07:38:42;;;;;;;7.55;5.57;;;3.40;99.90;;;;;;5080494;28;20579;-63
2021/12/24 07:41:09;;;;;;;6.90;5.43;;;3.30;99.90;;;;;;5079885;28;20196;-63
2021/12/24 07:43:37;;;;;;;9.20;5.68;;;3.30;99.90;;;;;;5079498;28;20200;-64
2021/12/24 07:46:05;;;;;;;8.45;6.72;;;3.30;99.90;;;;;;5079317;28;20777;-63
2021/12/24 07:48:43;;;;;;;10.98;6.60;;;3.30;99.90;;;;;;5079441;28;20287;-63
2021/12/24 07:54:00;;;;;;;7.50;5.47;;;3.20;99.90;;;;;;5078934;28;20200;-64
2021/12/24 07:56:28;;;;;;;6.70;4.72;;;3.20;99.90;;;;;;5079192;28;20224;-64
2021/12/24 07:58:56;;;;;;;5.57;4.95;;;3.10;99.90;;;;;;5086907;28;20188;-64
2021/12/24 08:01:25;;;;;;;8.07;4.07;;;3.10;99.90;;;;;;5098988;28;20204;-64
2021/12/24 08:03:53;;;;;;;7.75;4.88;;;3.00;99.90;;;;;;5099055;28;20473;-63
2021/12/24 08:06:25;;;;;;;5.30;4.80;;;3.00;99.90;;;;;;5098901;28;20492;-64
2021/12/24 08:08:53;;;;;;;9.13;6.75;;;3.00;99.90;;;;;;5099018;28;20425;-63
2021/12/24 08:11:21;;;;;;;7.65;4.82;;;3.00;99.90;;;;;;5098647;28;20668;-64
2021/12/24 08:13:49;;;;;;;5.95;5.35;;;3.10;99.90;;;;;;5098768;28;20291;-64
2021/12/24 08:16:19;;;;;;;6.80;5.57;;;3.10;99.90;;;;;;5098877;28;20218;-64
2021/12/24 08:18:47;;;;;;;6.07;4.60;;;3.10;99.90;;;;;;5098524;28;20196;-64
2021/12/24 08:21:15;;;;;;;11.52;6.07;;;3.10;99.90;;;;;;5098181;28;20203;-64
2021/12/24 08:23:45;;;;;;;9.05;6.13;;;3.10;99.90;;;;;;5098242;28;20344;-63
2021/12/24 08:26:13;;;;;;;7.13;5.30;;;3.10;99.90;;;;;;5098444;28;20237;-64
2021/12/24 08:28:41;;;;;;;12.15;6.63;;;3.10;99.90;;;;;;5098649;28;20381;-64
2021/12/24 08:31:09;;;;;;;9.40;6.32;;;3.20;99.90;;;;;;5097931;28;20221;-64
2021/12/24 08:33:37;;;;;;;10.23;6.47;;;3.10;99.90;;;;;;5098063;28;20276;-63
2021/12/24 08:36:07;;;;;;;11.50;6.80;;;3.10;99.90;;;;;;5098731;28;20211;-63
2021/12/24 08:38:35;;;;;;;8.52;6.57;;;3.00;99.90;;;;;;5098266;28;20681;-63
2021/12/24 08:41:04;;;;;;;11.05;5.72;;;3.00;99.90;;;;;;5098001;28;20597;-62
2021/12/24 08:43:33;;;;;;;9.40;6.28;;;3.00;99.90;;;;;;5097508;28;20571;-63
2021/12/24 08:46:02;;;;;;;11.13;6.50;;;2.90;99.90;;;;;;5098081;28;20241;-64
2021/12/24 08:48:30;;;;;;;7.95;5.93;;;2.90;99.90;;;;;;5098423;28;20663;-63
2021/12/24 08:50:57;;;;;;;7.90;6.63;;;2.80;99.90;;;;;;5097759;28;20191;-63
2021/12/24 08:53:26;;;;;;;7.65;6.10;;;2.80;99.90;;;;;;5098270;28;20283;-64
2021/12/24 08:55:54;;;;;;;8.82;6.00;;;2.80;99.90;;;;;;5097868;28;20230;-63
2021/12/24 08:58:24;;;;;;;10.75;5.93;;;2.80;99.90;;;;;;5097434;28;20203;-64
2021/12/24 09:00:52;;;;;;;9.40;5.80;;;2.80;99.90;;;;;;5097718;28;20332;-65
2021/12/24 09:03:20;;;;;;;7.28;6.07;;;2.80;99.90;;;;;;5098503;28;20199;-62
2021/12/24 09:05:48;;;;;;;8.00;7.20;;;2.80;99.90;;;;;;5097846;28;20258;-63
2021/12/24 09:08:16;;;;;;;8.48;6.00;;;2.90;99.90;;;;;;5098113;28;20767;-64
2021/12/24 09:10:44;;;;;;;9.00;6.25;;;2.90;99.90;;;;;;5098179;28;20242;-63
2021/12/24 09:13:11;;;;;;;7.95;6.13;;;2.90;99.90;;;;;;5098171;28;20255;-63
2021/12/24 09:15:41;;;;;;;11.35;7.05;;;3.00;99.90;;;;;;5098193;28;20223;-64
2021/12/24 09:18:09;;;;;;;13.35;7.43;;;3.10;99.90;;;;;;5097983;28;20208;-63
2021/12/24 09:20:40;;;;;;;16.60;8.05;;;3.20;99.90;;;;;;5098231;28;20200;-63
2021/12/24 09:23:10;;;;;;;10.15;7.40;;;3.30;99.90;;;;;;5097402;28;20604;-63
2021/12/24 09:25:38;;;;;;;11.45;7.90;;;3.30;99.90;;;;;;5098260;28;20301;-65
2021/12/24 09:28:07;;;;;;;10.18;6.60;;;3.30;99.90;;;;;;5097987;28;20740;-65
2021/12/24 09:30:35;;;;;;;9.18;7.25;;;3.20;99.90;;;;;;5098264;28;20217;-65
2021/12/24 09:33:06;;;;;;;11.15;7.18;;;3.10;99.90;;;;;;5097797;28;20840;-65
2021/12/24 09:35:34;;;;;;;9.70;7.18;;;3.00;99.90;;;;;;5098271;28;20226;-65
2021/12/24 09:38:03;;;;;;;9.63;6.82;;;2.90;99.90;;;;;;5099646;28;20311;-64
2021/12/24 09:40:33;;;;;;;16.08;8.20;;;2.70;99.90;;;;;;5100777;28;20203;-64
2021/12/24 09:43:02;;;;;;;10.38;7.25;;;2.60;99.90;;;;;;5103192;28;20195;-64
2021/12/24 09:45:30;;;;;;;10.00;6.75;;;2.50;99.90;;;;;;5101169;28;20347;-64
2021/12/24 09:47:58;;;;;;;9.82;6.70;;;2.50;99.90;;;;;;5102778;28;20290;-64
2021/12/24 09:50:29;;;;;;;9.10;6.72;;;2.50;99.90;;;;;;5103073;28;20214;-64
2021/12/24 09:52:57;;;;;;;9.13;6.40;;;2.50;99.90;;;;;;5103573;28;20203;-63
2021/12/24 09:55:30;;;;;;;7.57;5.63;;;2.30;99.90;;;;;;5103418;28;20249;-64
2021/12/24 09:57:58;;;;;;;9.27;6.93;;;2.10;99.90;;;;;;5102958;28;20279;-63
2021/12/24 10:00:27;;;;;;;8.02;6.43;;;2.10;99.90;;;;;;5100035;28;20226;-63
2021/12/24 10:02:57;;;;;;;8.35;6.30;;;2.00;99.90;;;;;;5101542;28;20242;-63
2021/12/24 10:05:30;;;;;;;13.15;7.30;;;2.00;99.90;;;;;;5101745;28;20227;-62
2021/12/24 10:08:08;;;;;;;8.80;6.82;;;2.10;99.90;;;;;;5102348;28;20298;-64
2021/12/24 10:10:40;;;;;;;9.40;7.00;;;2.10;99.90;;;;;;5102047;28;20198;-62
2021/12/24 10:13:33;;;;;;;10.23;6.68;;;2.20;99.90;;;;;;5101594;28;20199;-64
2021/12/24 10:16:03;;;;;;;9.60;6.30;;;2.20;99.90;;;;;;5102418;28;20224;-63
2021/12/24 10:18:38;;;;;;;10.98;6.15;;;2.20;99.90;;;;;;5101750;28;20223;-62
2021/12/24 10:21:13;;;;;;;7.40;6.13;;;2.30;99.90;;;;;;5101915;28;20266;-61
2021/12/24 10:23:45;;;;;;;9.48;7.57;;;2.30;99.90;;;;;;5102141;28;20207;-63
2021/12/24 10:26:19;;;;;;;8.60;6.57;;;2.30;99.90;;;;;;5101693;28;20311;-63
2021/12/24 10:28:54;;;;;;;9.15;6.32;;;2.30;99.90;;;;;;5101548;28;20216;-63
2021/12/24 10:31:25;;;;;;;9.85;6.93;;;2.30;99.90;;;;;;5101801;28;20195;-63
2021/12/24 10:34:10;;;;;;;7.75;6.30;;;2.30;99.90;;;;;;5101541;28;20200;-63
2021/12/24 10:37:04;;;;;;;11.50;7.00;;;2.30;99.90;;;;;;5101051;28;20215;-64
2021/12/24 10:39:37;;;;;;;12.20;6.95;;;2.30;99.90;;;;;;5101121;28;20199;-63
2021/12/24 10:42:08;;;;;;;14.43;8.40;;;2.30;99.90;;;;;;5101383;28;20294;-63
2021/12/24 10:44:39;;;;;;;10.60;7.22;;;2.40;99.90;;;;;;5091869;28;20288;-64
2021/12/24 10:47:10;;;;;;;8.82;7.00;;;2.40;99.90;;;;;;5081491;28;20200;-64
2021/12/24 10:49:55;;;;;;;10.23;7.05;;;2.50;99.90;;;;;;5081293;28;20204;-63
2021/12/24 10:52:45;;;;;;;11.70;7.47;;;2.60;99.90;;;;;;5080872;28;20211;-63
2021/12/24 10:55:17;;;;;;;11.57;8.45;;;2.70;99.90;;;;;;5097617;28;20728;-63
2021/12/24 10:57:47;;;;;;;12.35;7.65;;;2.70;99.90;;;;;;5100450;28;20207;-63
2021/12/24 11:00:22;;;;;;;11.13;7.18;;;2.80;99.90;;;;;;5100517;28;20199;-64
2021/12/24 11:02:53;;;;;;;12.82;8.23;;;2.90;99.90;;;;;;5100698;28;20207;-64
2021/12/24 11:05:40;;;;;;;11.23;8.27;;;2.90;99.90;;;;;;5100177;28;20617;-63
2021/12/24 11:08:12;;;;;;;15.80;9.20;;;3.00;99.90;;;;;;5100063;28;20227;-64
2021/12/24 11:10:42;;;;;;;12.75;9.00;;;3.10;99.90;;;;;;5100074;28;20211;-63
2021/12/24 11:13:13;;;;;;;10.73;8.30;;;3.10;99.90;;;;;;5100809;28;20230;-64
2021/12/24 11:15:44;;;;;;;12.98;8.77;;;3.10;99.90;;;;;;5096331;28;20230;-63
2021/12/24 11:18:18;;;;;;;15.63;9.63;;;3.10;99.90;;;;;;5100505;28;20225;-63
2021/12/24 11:20:52;;;;;;;13.25;8.93;;;3.10;99.90;;;;;;5080604;28;20830;-63
2021/12/24 11:23:23;;;;;;;11.43;8.02;;;3.00;99.90;;;;;;5086088;28;20202;-63
2021/12/24 11:25:52;;;;;;;14.43;9.30;;;2.90;99.90;;;;;;5100588;28;20273;-64
2021/12/24 11:28:23;;;;;;;10.98;8.38;;;2.90;99.90;;;;;;5101189;28;20234;-63
2021/12/24 11:30:54;;;;;;;11.65;8.23;;;2.90;99.90;;;;;;5103431;28;20227;-62
2021/12/24 11:33:23;;;;;;;16.17;11.40;;;2.90;99.90;;;;;;5100345;28;20204;-63
2021/12/24 11:35:52;;;;;;;13.27;10.10;;;2.90;99.90;;;;;;5100367;28;20220;-64
2021/12/24 11:38:24;;;;;;;15.10;10.10;;;2.80;99.90;;;;;;5100650;28;20705;-63
2021/12/24 11:40:54;;;;;;;18.33;11.88;;;2.80;99.90;;;;;;5099790;28;20199;-63
2021/12/24 11:43:31;;;;;;;17.23;11.25;;;2.80;99.90;;;;;;5100257;28;20682;-63
2021/12/24 11:46:01;;;;;;;16.38;10.50;;;2.70;99.90;;;;;;5100079;28;20302;-63
2021/12/24 11:48:32;;;;;;;15.93;11.48;;;2.80;99.90;;;;;;5099967;28;20792;-64
2021/12/24 11:51:00;;;;;;;20.73;12.02;;;2.80;99.90;;;;;;5099824;28;20199;-63
2021/12/24 11:53:33;;;;;;;19.65;10.73;;;2.80;99.90;;;;;;5099562;28;20204;-64
2021/12/24 11:56:03;;;;;;;19.35;11.55;;;2.70;99.90;;;;;;5099641;28;20234;-64
2021/12/24 11:58:32;;;;;;;17.42;11.25;;;2.70;99.90;;;;;;5099382;28;20209;-61
2021/12/24 12:01:05;;;;;;;20.73;12.35;;;2.70;99.90;;;;;;5098968;28;20480;-62
2021/12/24 12:03:39;;;;;;;22.48;12.88;;;2.60;99.90;;;;;;5099441;28;20647;-64
2021/12/24 12:06:12;;;;;;;20.92;13.52;;;2.50;99.90;;;;;;5099976;28;20624;-63
2021/12/24 12:08:42;;;;;;;24.58;14.32;;;2.50;99.90;;;;;;5099418;28;20233;-61
2021/12/24 12:11:21;;;;;;;24.45;15.23;;;2.50;99.90;;;;;;5099782;28;20299;-64
2021/12/24 12:13:52;;;;;;;27.10;15.07;;;2.40;99.90;;;;;;5099671;28;20441;-61
2021/12/24 12:16:23;;;;;;;30.83;16.02;;;2.40;99.90;;;;;;5099017;28;20580;-62
2021/12/24 12:19:04;;;;;;;23.27;14.95;;;2.40;99.90;;;;;;5098919;28;20291;-63
2021/12/24 12:21:38;;;;;;;24.50;15.50;;;2.40;99.90;;;;;;5099125;28;20473;-62
2021/12/24 12:27:00;;;;;;;26.45;15.18;;;2.50;99.90;;;;;;5099728;28;20223;-63
2021/12/24 12:29:33;;;;;;;28.88;16.60;;;2.40;99.90;;;;;;5099723;28;20223;-63
2021/12/24 12:32:26;;;;;;;32.40;17.25;;;2.40;99.90;;;;;;5103915;28;20203;-64
2021/12/24 12:34:58;;;;;;;26.45;14.68;;;2.40;99.90;;;;;;5100485;28;20195;-63
2021/12/24 12:37:27;;;;;;;24.60;15.98;;;2.40;99.90;;;;;;5100535;28;20203;-63
2021/12/24 12:40:03;;;;;;;30.75;18.77;;;2.40;99.90;;;;;;5099931;28;20207;-63
2021/12/24 12:43:08;;;;;;;25.02;17.15;;;2.40;99.90;;;;;;5100714;28;20203;-63
2021/12/24 12:46:00;;;;;;;25.85;14.90;;;2.50;99.90;;;;;;5100985;28;20224;-63
2021/12/24 12:48:50;;;;;;;21.75;13.35;;;2.40;99.90;;;;;;5099533;28;20251;-63
2021/12/24 12:51:21;;;;;;;23.75;14.32;;;2.40;99.90;;;;;;5098948;28;20286;-63
2021/12/24 12:53:51;;;;;;;23.75;13.60;;;2.30;99.90;;;;;;5099639;28;20421;-61
2021/12/24 12:56:26;;;;;;;18.92;13.10;;;2.30;99.90;;;;;;5099334;28;20886;-62
2021/12/24 12:58:59;;;;;;;19.58;13.15;;;2.20;99.90;;;;;;5099911;28;20642;-61
2021/12/24 13:01:28;;;;;;;19.92;12.25;;;2.20;99.90;;;;;;5099232;28;20205;-62
2021/12/24 13:04:12;;;;;;;17.63;12.68;;;2.10;99.90;;;;;;5099551;28;20212;-63
2021/12/24 13:06:55;;;;;;;20.60;13.20;;;2.20;99.90;;;;;;5098343;28;20226;-64
2021/12/24 13:09:29;;;;;;;21.45;13.10;;;2.20;99.90;;;;;;5099011;28;20215;-64
2021/12/24 13:11:58;;;;;;;18.35;12.48;;;2.20;99.90;;;;;;5098691;28;20196;-62
2021/12/24 13:14:28;;;;;;;20.02;13.50;;;2.10;99.90;;;;;;5098576;28;20199;-62
2021/12/24 13:17:18;;;;;;;20.90;12.27;;;2.10;99.90;;;;;;5098961;28;20220;-62
2021/12/24 13:20:08;;;;;;;21.65;13.48;;;2.10;99.90;;;;;;5098149;28;20184;-62
2021/12/24 13:22:37;;;;;;;26.85;14.18;;;2.10;99.90;;;;;;5098272;28;20292;-64
2021/12/24 13:25:10;;;;;;;25.67;15.20;;;2.00;99.90;;;;;;5094923;28;20211;-63
2021/12/24 13:27:41;;;;;;;30.30;16.35;;;2.00;99.90;;;;;;5098079;28;20403;-63
2021/12/24 13:30:13;;;;;;;23.00;13.93;;;2.00;99.90;;;;;;5101108;28;20219;-64
2021/12/24 13:32:47;;;;;;;22.75;14.50;;;2.10;99.90;;;;;;5106962;28;20203;-63
2021/12/24 13:35:17;;;;;;;23.25;14.55;;;2.10;99.90;;;;;;5103560;28;20619;-63
2021/12/24 13:37:46;;;;;;;29.70;15.23;;;2.10;99.90;;;;;;5105473;28;20763;-62
2021/12/24 13:40:16;;;;;;;26.30;14.40;;;2.10;99.90;;;;;;5105306;28;20320;-62
2021/12/24 13:42:49;;;;;;;28.67;16.45;;;2.10;99.90;;;;;;5097613;28;20282;-63
2021/12/24 13:45:17;;;;;;;32.33;16.70;;;2.10;99.90;;;;;;5097083;28;20320;-64
2021/12/24 13:47:57;;;;;;;28.20;15.38;;;2.10;99.90;;;;;;5097340;28;20219;-65
2021/12/24 13:56:07;;;;;;;36.47;18.13;;;2.20;99.90;;;;;;5093598;28;20224;-64
2021/12/24 13:58:39;;;;;;;34.47;16.48;;;2.20;99.90;;;;;;5086180;28;20231;-63
2021/12/24 14:01:07;;;;;;;32.38;16.90;;;2.20;99.90;;;;;;5095531;28;20192;-64
2021/12/24 14:03:35;;;;;;;31.25;16.92;;;2.20;99.90;;;;;;5096963;28;20199;-64
2021/12/24 14:06:05;;;;;;;37.72;18.40;;;2.20;99.90;;;;;;5097339;28;20234;-63
2021/12/24 14:08:37;;;;;;;33.95;16.52;;;2.20;99.90;;;;;;5098665;28;20199;-64
2021/12/24 14:11:08;;;;;;;30.98;15.43;;;2.20;99.90;;;;;;5097663;28;20196;-63
2021/12/24 14:13:41;;;;;;;40.20;18.60;;;2.20;99.90;;;;;;5097973;28;20534;-65
2021/12/24 14:16:30;;;;;;;34.63;18.50;;;2.20;99.90;;;;;;5097309;28;20267;-63
2021/12/24 14:19:11;;;;;;;34.58;17.60;;;2.20;99.90;;;;;;5095521;28;20223;-64
2021/12/24 14:21:45;;;;;;;40.30;18.45;;;2.20;99.90;;;;;;5095598;28;20188;-64
2021/12/24 14:24:23;;;;;;;37.22;16.95;;;2.20;99.90;;;;;;5095399;28;20718;-65
2021/12/24 14:26:58;;;;;;;35.03;19.23;;;2.20;99.90;;;;;;5094978;28;20282;-65
2021/12/24 14:29:31;;;;;;;33.53;18.02;;;2.20;99.90;;;;;;5098531;28;20334;-64